x

West Bermuda - 240 Nm West Of Bermuda (41048) Wave Buoy

9:50pm - Sun 21st Dec 2014 All times are UTC.

  • Sig Wave height 3.6ft
  • Swell Direction
  • Peak Period 9s
  • Average Period 5s
  • Wind
    18mph, 20mph gusts
  • Sea Temp 73°f
  • Air Temp 67°f
  • Sea Pressure 1020.8mb

More Historic Weather Station data

Upgrade to MSW Pro to gain access to the past 30 days of data for over 8000 Wavebouys and Weather Stations around the globe.

Join Pro

Comparision Forecast

View Surf forecast
   
Sun 12/21 9:50pm 3.5ft 9s 5s 18 20 mph 1020.8mb 73f 67f
8:50pm 3.5ft 9s 5s 18 22 mph 1020.3mb 73f 67f
7:50pm 3.5ft 9s 5s 18 20 mph 1020.3mb 73f 65f
6:50pm 3.5ft 10s 5s 16 18 mph 1020.5mb 73f 65f
5:50pm 3.5ft 8s 5s 18 20 mph 1020.8mb 73f 65f
4:50pm 4ft 9s 5s 18 22 mph 1021.2mb 73f 65f
3:50pm 4ft 8s 5s 18 22 mph 1022.1mb 73f 64f
2:50pm 4ft 9s 5s 18 20 mph 1022.9mb 73f 63f
1:50pm 4ft 7s 5s 18 22 mph 1022.6mb 73f 64f
12:50pm 3.5ft 7s 5s 18 22 mph 1021.6mb 73f 63f
11:50am 3.5ft 7s 5s 16 18 mph 1021.9mb 73f 64f
10:50am 3.5ft 7s 5s 18 20 mph 1021mb 73f 65f
9:50am 3.5ft 8s 6s 13 18 mph 1020.1mb 73f 67f
8:50am 4ft 7s 6s 13 18 mph 1020mb 73f 67f
7:50am 4ft 7s 6s 9 16 mph 1020.7mb 73f 67f
6:50am 4ft 7s 6s 9 13 mph 1021mb 73f 67f
5:50am 4.5ft 8s 6s 11 13 mph 1021mb 73f 67f
4:50am 4.5ft 8s 6s 9 11 mph 1021.5mb 73f 67f
3:50am 5ft 7s 6s 7 9 mph 1022mb 73f 67f
2:50am 4.5ft 8s 6s 9 11 mph 1021.8mb 73f 67f
1:50am 4.5ft 8s 6s 7 9 mph 1021.7mb 73f 67f
12:50am 4.5ft 8s 6s 7 9 mph 1021.7mb 73f 67f
Sat 12/20 11:50pm 4.5ft 8s 6s 7 9 mph 1021.4mb 73f 67f
10:50pm 4.5ft 8s 6s 4 7 mph 1021.4mb 73f 66f
9:50pm 4.5ft 8s 6s 4 7 mph 1020.8mb 73f 66f
8:50pm 4.5ft 7s 6s 7 9 mph 1020.6mb 73f 66f
7:50pm 4.5ft 8s 6s 7 11 mph 1020.2mb 73f 66f
6:50pm 4.5ft 7s 6s 7 11 mph 1020.1mb 73f 66f
5:50pm 5ft 8s 6s 7 9 mph 1020.2mb 73f 67f
4:50pm 5ft 8s 6s 9 11 mph 1020.7mb 73f 67f
3:50pm 4.5ft 7s 6s 9 11 mph 1021.5mb 73f 67f
2:50pm 4.5ft 8s 6s 11 13 mph 1021.7mb 73f 67f
1:50pm 4.5ft 8s 6s 9 16 mph 1021.6mb 73f 67f
12:50pm 4.5ft 8s 6s 11 16 mph 1020.9mb 73f 67f
11:50am 4.5ft 8s 6s 11 16 mph 1020.3mb 73f 66f
10:50am 4.5ft 8s 5s 13 18 mph 1019.5mb 73f 66f
9:50am 4.5ft 8s 6s 13 18 mph 1018.8mb 73f 66f
8:50am 4.5ft 8s 6s 13 18 mph 1018.7mb 73f 66f
7:50am 4.5ft 8s 6s 13 18 mph 1018.7mb 73f 66f
6:50am 4.5ft 8s 6s 13 18 mph 1018.6mb 73f 66f
5:50am 4.5ft 8s 6s 11 16 mph 1018.7mb 73f 66f
4:50am 4.5ft 8s 6s 13 18 mph 1018.7mb 73f 67f
3:50am 5ft 8s 6s 13 18 mph 1018.8mb 73f 67f
2:50am 4.5ft 8s 6s 11 16 mph 1018.6mb 73f 67f
1:50am 4.5ft 8s 6s 13 18 mph 1018.5mb 73f 68f
12:50am 5ft 8s 6s 11 13 mph 1018.3mb 73f 68f
Fri 12/19 11:50pm 5.5ft 8s 6s 11 16 mph 1017.7mb 73f 68f
10:50pm 6ft 9s 7s 11 16 mph 1017.3mb 73f 68f
9:50pm 6ft 9s 7s 11 13 mph 1016.5mb 73f 68f
8:50pm 6ft 9s 7s 11 13 mph 1016.4mb 73f 68f
7:50pm 6.5ft 8s 7s 11 13 mph 1015.9mb 73f 68f
6:50pm 6ft 10s 7s 11 13 mph 1016.1mb 73f 68f
5:50pm 7ft 9s 7s 9 13 mph 1016.2mb 73f 68f
4:50pm 7ft 9s 7s 11 16 mph 1016.5mb 73f 69f
3:50pm 6.5ft 9s 7s 11 13 mph 1017.3mb 73f 69f
2:50pm 6.5ft 8s 7s 13 18 mph 1017.5mb 73f 69f
1:50pm 6.5ft 9s 7s 11 13 mph 1017.1mb 73f 69f
12:50pm 6ft 9s 7s 13 18 mph 1016.5mb 73f 69f
11:50am 6ft 9s 7s 16 20 mph 1016mb 73f 69f
10:50am 5.5ft 8s 6s 13 18 mph 1015.4mb 73f 69f
9:50am 6ft 8s 6s 13 18 mph 1015.3mb 73f 69f
8:50am 5ft 7s 6s 13 18 mph 1015.6mb 73f 69f
7:50am 5ft 8s 6s 13 18 mph 1015.8mb 73f 69f
6:50am 5ft 8s 6s 16 20 mph 1015.8mb 73f 69f
5:50am 5ft 7s 6s 11 13 mph 1015.6mb 73f 69f
4:50am 5ft 7s 6s 9 13 mph 1016mb 73f 69f
3:50am 5ft 8s 6s 11 13 mph 1016.7mb 73f 69f
2:50am 5ft 7s 6s 11 20 mph 1016.7mb 73f 70f
1:50am 5ft 8s 6s 11 16 mph 1016.3mb 73f 70f
12:50am 5ft 7s 6s 13 18 mph 1016.4mb 73f 70f
Thu 12/18 11:50pm 5ft 7s 6s 13 18 mph 1016.4mb 73f 70f
10:50pm 5ft 8s 6s 13 18 mph 1016.1mb 73f 70f
9:50pm 5.5ft 7s 6s 13 18 mph 1016mb 73f 70f
8:50pm 5.5ft 8s 6s 13 16 mph 1015.9mb 73f 70f
7:50pm 5ft 7s 6s 16 18 mph 1015.7mb 73f 71f
6:50pm 6ft 7s 6s 18 22 mph 1015.8mb 73f 70f
5:50pm 6ft 8s 6s 16 22 mph 1016.2mb 73f 70f
4:50pm 5.5ft 8s 6s 18 22 mph 1017.1mb 73f 70f
3:50pm 5.5ft 8s 6s 18 22 mph 1018mb 73f 70f
2:50pm 6ft 8s 6s 18 22 mph 1018.2mb 73f 70f
1:50pm 6ft 8s 6s 18 20 mph 1017.9mb 73f 70f
12:50pm 6ft 8s 6s 16 20 mph 1017.5mb 73f 70f
11:50am 6ft 9s 6s 13 16 mph 1017.3mb 73f 69f
10:50am 6ft 8s 6s 13 18 mph 1016.8mb 73f 69f
9:50am 6.5ft 8s 7s 13 18 mph 1016.4mb 73f 68f
8:50am 7ft 9s 7s 13 18 mph 1016.4mb 73f 68f
7:50am 6ft 8s 6s 13 18 mph 1016.7mb 73f 69f
6:50am 7ft 9s 7s 13 16 mph 1016.7mb 73f 68f
5:50am 7ft 8s 7s 13 16 mph 1016.8mb 73f 68f
4:50am 7ft 8s 7s 9 13 mph 1017.1mb 73f 68f
3:50am 7ft 9s 6s 13 18 mph 1017.6mb 73f 69f
2:50am 6.5ft 8s 6s 11 16 mph 1017.4mb 73f 69f
1:50am 7ft 9s 7s 11 16 mph 1017.2mb 73f 69f
12:50am 7.5ft 8s 7s 11 13 mph 1016.7mb 73f 69f
Wed 12/17 11:50pm 7.5ft 8s 6s 13 18 mph 1016.3mb 73f 69f